sensor_id;sensor_type;location;lat;lon;timestamp;pressure;altitude;pressure_sealevel;temperature;humidity
59787;BME280;45672;51.612;5.536;2023-02-18T00:01:52;102054.91;;;10.71;100.00
59787;BME280;45672;51.612;5.536;2023-02-18T00:04:17;102052.38;;;10.69;100.00
59787;BME280;45672;51.612;5.536;2023-02-18T00:06:42;102047.91;;;10.69;100.00
59787;BME280;45672;51.612;5.536;2023-02-18T00:09:09;102037.25;;;10.69;100.00
59787;BME280;45672;51.612;5.536;2023-02-18T00:11:35;102038.09;;;10.70;100.00
59787;BME280;45672;51.612;5.536;2023-02-18T00:14:04;102045.38;;;10.68;100.00
59787;BME280;45672;51.612;5.536;2023-02-18T00:16:30;102037.38;;;10.68;100.00
59787;BME280;45672;51.612;5.536;2023-02-18T00:18:58;102044.41;;;10.69;100.00
59787;BME280;45672;51.612;5.536;2023-02-18T00:21:24;102044.41;;;10.69;100.00
59787;BME280;45672;51.612;5.536;2023-02-18T00:23:50;102040.75;;;10.70;100.00
59787;BME280;45672;51.612;5.536;2023-02-18T00:26:16;102040.88;;;10.68;100.00
59787;BME280;45672;51.612;5.536;2023-02-18T00:28:42;102036.41;;;10.69;100.00
59787;BME280;45672;51.612;5.536;2023-02-18T00:31:12;102030.22;;;10.68;100.00
59787;BME280;45672;51.612;5.536;2023-02-18T00:33:38;102031.94;;;10.69;100.00
59787;BME280;45672;51.612;5.536;2023-02-18T00:36:06;102023.94;;;10.69;100.00
59787;BME280;45672;51.612;5.536;2023-02-18T00:38:32;102030.09;;;10.70;100.00
59787;BME280;45672;51.612;5.536;2023-02-18T00:40:57;102020.44;;;10.69;100.00
59787;BME280;45672;51.612;5.536;2023-02-18T00:43:23;102017.91;;;10.67;100.00
59787;BME280;45672;51.612;5.536;2023-02-18T00:45:48;102013.41;;;10.68;100.00
59787;BME280;45672;51.612;5.536;2023-02-18T00:48:13;102008.09;;;10.68;100.00
59787;BME280;45672;51.612;5.536;2023-02-18T00:50:39;102004.59;;;10.67;100.00
59787;BME280;45672;51.612;5.536;2023-02-18T00:53:04;102000.94;;;10.68;100.00
59787;BME280;45672;51.612;5.536;2023-02-18T00:55:29;102001.94;;;10.67;100.00
59787;BME280;45672;51.612;5.536;2023-02-18T00:57:55;102002.78;;;10.68;100.00
59787;BME280;45672;51.612;5.536;2023-02-18T01:00:20;101998.41;;;10.67;100.00
59787;BME280;45672;51.612;5.536;2023-02-18T01:02:46;101994.78;;;10.68;100.00
59787;BME280;45672;51.612;5.536;2023-02-18T01:05:11;102000.13;;;10.68;100.00
59787;BME280;45672;51.612;5.536;2023-02-18T01:07:36;101994.78;;;10.68;100.00
59787;BME280;45672;51.612;5.536;2023-02-18T01:10:02;101983.31;;;10.67;100.00
59787;BME280;45672;51.612;5.536;2023-02-18T01:12:28;101982.31;;;10.68;100.00
59787;BME280;45672;51.612;5.536;2023-02-18T01:14:53;101980.50;;;10.69;100.00
59787;BME280;45672;51.612;5.536;2023-02-18T01:17:18;101974.31;;;10.68;100.00
59787;BME280;45672;51.612;5.536;2023-02-18T01:19:44;101983.03;;;10.71;100.00
59787;BME280;45672;51.612;5.536;2023-02-18T01:22:09;101970.69;;;10.69;100.00
59787;BME280;45672;51.612;5.536;2023-02-18T01:24:34;101970.97;;;10.66;100.00
59787;BME280;45672;51.612;5.536;2023-02-18T01:27:00;101976.84;;;10.70;100.00
59787;BME280;45672;51.612;5.536;2023-02-18T01:29:25;101957.53;;;10.68;100.00
59787;BME280;45672;51.612;5.536;2023-02-18T01:31:51;101976.41;;;10.65;100.00
59787;BME280;45672;51.612;5.536;2023-02-18T01:34:16;101977.38;;;10.64;100.00
59787;BME280;45672;51.612;5.536;2023-02-18T01:36:42;101983.66;;;10.63;100.00
59787;BME280;45672;51.612;5.536;2023-02-18T01:39:07;101970.75;;;10.58;100.00
59787;BME280;45672;51.612;5.536;2023-02-18T01:41:32;101971.13;;;10.54;100.00
59787;BME280;45672;51.612;5.536;2023-02-18T01:46:35;101965.72;;;10.44;100.00
59787;BME280;45672;51.612;5.536;2023-02-18T01:49:00;101969.75;;;10.38;100.00
59787;BME280;45672;51.612;5.536;2023-02-18T01:51:33;101972.75;;;10.33;100.00
59787;BME280;45672;51.612;5.536;2023-02-18T01:56:30;101968.78;;;10.28;100.00
59787;BME280;45672;51.612;5.536;2023-02-18T01:58:59;101959.94;;;10.27;100.00
59787;BME280;45672;51.612;5.536;2023-02-18T02:01:25;101958.38;;;10.25;100.00
59787;BME280;45672;51.612;5.536;2023-02-18T02:03:51;101950.38;;;10.25;100.00
59787;BME280;45672;51.612;5.536;2023-02-18T02:06:19;101948.59;;;10.25;100.00
59787;BME280;45672;51.612;5.536;2023-02-18T02:08:46;101952.34;;;10.23;100.00
59787;BME280;45672;51.612;5.536;2023-02-18T02:17:07;101945.66;;;10.28;100.00
59787;BME280;45672;51.612;5.536;2023-02-18T02:40:17;101906.06;;;10.14;100.00
59787;BME280;45672;51.612;5.536;2023-02-18T02:50:53;101896.88;;;10.18;100.00
59787;BME280;45672;51.612;5.536;2023-02-18T02:53:27;101891.81;;;10.15;100.00
59787;BME280;45672;51.612;5.536;2023-02-18T02:55:54;101886.00;;;10.10;100.00
59787;BME280;45672;51.612;5.536;2023-02-18T02:58:20;101881.91;;;10.06;100.00
59787;BME280;45672;51.612;5.536;2023-02-18T03:04:00;101863.34;;;9.94;100.00
59787;BME280;45672;51.612;5.536;2023-02-18T03:17:54;101832.44;;;9.82;100.00
59787;BME280;45672;51.612;5.536;2023-02-18T03:20:25;101832.69;;;9.79;100.00
59787;BME280;45672;51.612;5.536;2023-02-18T03:22:53;101821.34;;;9.77;100.00
59787;BME280;45672;51.612;5.536;2023-02-18T03:25:20;101819.78;;;9.74;100.00
59787;BME280;45672;51.612;5.536;2023-02-18T03:27:55;101810.25;;;9.72;100.00
59787;BME280;45672;51.612;5.536;2023-02-18T03:30:25;101810.25;;;9.72;100.00
59787;BME280;45672;51.612;5.536;2023-02-18T03:32:54;101810.25;;;9.72;100.00
59787;BME280;45672;51.612;5.536;2023-02-18T03:35:22;101808.56;;;9.71;100.00
59787;BME280;45672;51.612;5.536;2023-02-18T03:37:52;101802.66;;;9.67;100.00
59787;BME280;45672;51.612;5.536;2023-02-18T03:40:22;101795.66;;;9.66;100.00
59787;BME280;45672;51.612;5.536;2023-02-18T03:42:47;101793.94;;;9.65;100.00
59787;BME280;45672;51.612;5.536;2023-02-18T03:45:13;101786.97;;;9.64;100.00
59787;BME280;45672;51.612;5.536;2023-02-18T03:47:38;101780.91;;;9.62;100.00
59787;BME280;45672;51.612;5.536;2023-02-18T03:50:04;101778.25;;;9.62;100.00
59787;BME280;45672;51.612;5.536;2023-02-18T03:52:29;101779.25;;;9.61;100.00
59787;BME280;45672;51.612;5.536;2023-02-18T03:54:55;101776.59;;;9.61;100.00
59787;BME280;45672;51.612;5.536;2023-02-18T03:57:20;101782.75;;;9.61;100.00
59787;BME280;45672;51.612;5.536;2023-02-18T03:59:45;101772.25;;;9.60;100.00
59787;BME280;45672;51.612;5.536;2023-02-18T04:02:11;101761.75;;;9.58;100.00
59787;BME280;45672;51.612;5.536;2023-02-18T04:04:36;101760.19;;;9.56;100.00
59787;BME280;45672;51.612;5.536;2023-02-18T04:07:01;101759.22;;;9.57;100.00
59787;BME280;45672;51.612;5.536;2023-02-18T04:09:26;101754.25;;;9.52;100.00
59787;BME280;45672;51.612;5.536;2023-02-18T04:11:52;101754.03;;;9.55;100.00
59787;BME280;45672;51.612;5.536;2023-02-18T04:14:17;101744.38;;;9.54;100.00
59787;BME280;45672;51.612;5.536;2023-02-18T04:16:42;101755.81;;;9.55;100.00
59787;BME280;45672;51.612;5.536;2023-02-18T04:19:08;101747.97;;;9.53;100.00
59787;BME280;45672;51.612;5.536;2023-02-18T04:21:33;101743.50;;;9.54;100.00
59787;BME280;45672;51.612;5.536;2023-02-18T04:23:59;101754.13;;;9.54;100.00
59787;BME280;45672;51.612;5.536;2023-02-18T04:26:25;101733.00;;;9.52;100.00
59787;BME280;45672;51.612;5.536;2023-02-18T04:28:50;101734.69;;;9.53;100.00
59787;BME280;45672;51.612;5.536;2023-02-18T04:31:16;101732.16;;;9.52;100.00
59787;BME280;45672;51.612;5.536;2023-02-18T04:33:42;101744.63;;;9.51;100.00
59787;BME280;45672;51.612;5.536;2023-02-18T04:36:08;101737.00;;;9.46;100.00
59787;BME280;45672;51.612;5.536;2023-02-18T04:38:33;101735.09;;;9.48;100.00
59787;BME280;45672;51.612;5.536;2023-02-18T04:40:59;101734.00;;;9.51;100.00
59787;BME280;45672;51.612;5.536;2023-02-18T04:43:24;101729.66;;;9.50;100.00
59787;BME280;45672;51.612;5.536;2023-02-18T04:45:49;101735.91;;;9.49;100.00
59787;BME280;45672;51.612;5.536;2023-02-18T04:48:15;101734.34;;;9.46;100.00
59787;BME280;45672;51.612;5.536;2023-02-18T04:50:40;101735.09;;;9.48;100.00
59787;BME280;45672;51.612;5.536;2023-02-18T04:53:06;101740.41;;;9.48;100.00
59787;BME280;45672;51.612;5.536;2023-02-18T04:55:31;101739.44;;;9.49;100.00
59787;BME280;45672;51.612;5.536;2023-02-18T04:57:56;101729.78;;;9.48;100.00
59787;BME280;45672;51.612;5.536;2023-02-18T05:00:21;101725.41;;;9.47;100.00
59787;BME280;45672;51.612;5.536;2023-02-18T05:02:47;101719.16;;;9.48;100.00
59787;BME280;45672;51.612;5.536;2023-02-18T05:05:13;101715.66;;;9.48;100.00
59787;BME280;45672;51.612;5.536;2023-02-18T05:07:39;101717.44;;;9.47;100.00
59787;BME280;45672;51.612;5.536;2023-02-18T05:10:07;101708.78;;;9.45;100.00
59787;BME280;45672;51.612;5.536;2023-02-18T05:12:33;101714.94;;;9.46;100.00
59787;BME280;45672;51.612;5.536;2023-02-18T05:14:58;101708.78;;;9.45;100.00
59787;BME280;45672;51.612;5.536;2023-02-18T05:17:23;101703.47;;;9.45;100.00
59787;BME280;45672;51.612;5.536;2023-02-18T05:19:48;101687.88;;;9.41;100.00
59787;BME280;45672;51.612;5.536;2023-02-18T05:22:14;101695.63;;;9.44;100.00
59787;BME280;45672;51.612;5.536;2023-02-18T05:24:39;101694.75;;;9.43;100.00
59787;BME280;45672;51.612;5.536;2023-02-18T05:27:04;101684.41;;;9.40;100.00
59787;BME280;45672;51.612;5.536;2023-02-18T05:29:29;101692.38;;;9.40;100.00
59787;BME280;45672;51.612;5.536;2023-02-18T05:31:55;101693.31;;;9.39;100.00
59787;BME280;45672;51.612;5.536;2023-02-18T05:34:20;101693.31;;;9.39;100.00
59787;BME280;45672;51.612;5.536;2023-02-18T05:36:45;101693.31;;;9.39;100.00
59787;BME280;45672;51.612;5.536;2023-02-18T05:39:11;101693.31;;;9.39;100.00
59787;BME280;45672;51.612;5.536;2023-02-18T05:41:36;101689.97;;;9.37;100.00
59787;BME280;45672;51.612;5.536;2023-02-18T05:44:01;101693.47;;;9.38;100.00
59787;BME280;45672;51.612;5.536;2023-02-18T05:46:45;101684.53;;;9.39;100.00
59787;BME280;45672;51.612;5.536;2023-02-18T05:49:11;101689.00;;;9.38;100.00
59787;BME280;45672;51.612;5.536;2023-02-18T05:51:36;101678.38;;;9.38;100.00
59787;BME280;45672;51.612;5.536;2023-02-18T05:54:02;101688.16;;;9.38;100.00
59787;BME280;45672;51.612;5.536;2023-02-18T05:56:27;101665.34;;;9.35;100.00
59787;BME280;45672;51.612;5.536;2023-02-18T05:58:52;101676.69;;;9.37;100.00
59787;BME280;45672;51.612;5.536;2023-02-18T06:01:18;101667.88;;;9.37;100.00
59787;BME280;45672;51.612;5.536;2023-02-18T06:03:43;101662.56;;;9.37;100.00
59787;BME280;45672;51.612;5.536;2023-02-18T06:06:09;101658.22;;;9.36;100.00
59787;BME280;45672;51.612;5.536;2023-02-18T06:08:34;101666.19;;;9.36;100.00
59787;BME280;45672;51.612;5.536;2023-02-18T06:11:00;101661.84;;;9.35;100.00
59787;BME280;45672;51.612;5.536;2023-02-18T06:13:25;101655.69;;;9.34;100.00
59787;BME280;45672;51.612;5.536;2023-02-18T06:15:51;101659.44;;;9.31;100.00
59787;BME280;45672;51.612;5.536;2023-02-18T06:18:17;101665.47;;;9.34;100.00
59787;BME280;45672;51.612;5.536;2023-02-18T06:20:42;101657.38;;;9.35;100.00
59787;BME280;45672;51.612;5.536;2023-02-18T06:23:07;101644.09;;;9.35;100.00
59787;BME280;45672;51.612;5.536;2023-02-18T06:25:33;101650.38;;;9.34;100.00
59787;BME280;45672;51.612;5.536;2023-02-18T06:27:58;101651.34;;;9.33;100.00
59787;BME280;45672;51.612;5.536;2023-02-18T06:30:23;101655.69;;;9.34;100.00
59787;BME280;45672;51.612;5.536;2023-02-18T06:32:48;101656.66;;;9.33;100.00
59787;BME280;45672;51.612;5.536;2023-02-18T06:35:14;101663.66;;;9.34;100.00
59787;BME280;45672;51.612;5.536;2023-02-18T06:37:39;101654.00;;;9.33;100.00
59787;BME280;45672;51.612;5.536;2023-02-18T06:40:05;101665.59;;;9.32;100.00
59787;BME280;45672;51.612;5.536;2023-02-18T06:42:31;101661.13;;;9.32;100.00
59787;BME280;45672;51.612;5.536;2023-02-18T06:44:56;101649.78;;;9.30;100.00
59787;BME280;45672;51.612;5.536;2023-02-18T06:47:21;101648.94;;;9.30;100.00
59787;BME280;45672;51.612;5.536;2023-02-18T06:49:46;101645.69;;;9.26;100.00
59787;BME280;45672;51.612;5.536;2023-02-18T06:52:12;101651.88;;;9.27;100.00
59787;BME280;45672;51.612;5.536;2023-02-18T06:54:37;101651.88;;;9.27;100.00
59787;BME280;45672;51.612;5.536;2023-02-18T06:57:02;101638.81;;;9.24;100.00
59787;BME280;45672;51.612;5.536;2023-02-18T06:59:28;101649.34;;;9.25;100.00
59787;BME280;45672;51.612;5.536;2023-02-18T07:01:53;101659.09;;;9.25;100.00
59787;BME280;45672;51.612;5.536;2023-02-18T07:04:18;101654.31;;;9.19;100.00
59787;BME280;45672;51.612;5.536;2023-02-18T07:06:43;101669.16;;;9.21;100.00
59787;BME280;45672;51.612;5.536;2023-02-18T07:09:09;101663.22;;;9.18;100.00
59787;BME280;45672;51.612;5.536;2023-02-18T07:11:34;101666.97;;;9.15;100.00
59787;BME280;45672;51.612;5.536;2023-02-18T07:13:59;101664.56;;;9.12;100.00
59787;BME280;45672;51.612;5.536;2023-02-18T07:16:25;101660.47;;;9.08;100.00
59787;BME280;45672;51.612;5.536;2023-02-18T07:18:50;101666.16;;;9.03;100.00
59787;BME280;45672;51.612;5.536;2023-02-18T07:21:15;101656.06;;;8.97;100.00
59787;BME280;45672;51.612;5.536;2023-02-18T07:23:41;101678.13;;;8.97;100.00
59787;BME280;45672;51.612;5.536;2023-02-18T07:26:10;101668.59;;;8.95;100.00
59787;BME280;45672;51.612;5.536;2023-02-18T07:28:36;101666.06;;;8.93;100.00
59787;BME280;45672;51.612;5.536;2023-02-18T07:31:02;101659.94;;;8.93;100.00
59787;BME280;45672;51.612;5.536;2023-02-18T07:33:27;101669.94;;;8.89;100.00
59787;BME280;45672;51.612;5.536;2023-02-18T07:35:57;101684.06;;;8.90;100.00
59787;BME280;45672;51.612;5.536;2023-02-18T07:38:23;101684.16;;;8.88;100.00
59787;BME280;45672;51.612;5.536;2023-02-18T07:40:49;101686.81;;;8.88;100.00
59787;BME280;45672;51.612;5.536;2023-02-18T07:43:14;101682.50;;;8.87;100.00
59787;BME280;45672;51.612;5.536;2023-02-18T07:45:39;101686.13;;;8.86;100.00
59787;BME280;45672;51.612;5.536;2023-02-18T07:48:05;101688.88;;;8.85;100.00
59787;BME280;45672;51.612;5.536;2023-02-18T07:50:30;101686.38;;;8.83;100.00
59787;BME280;45672;51.612;5.536;2023-02-18T07:53:02;101695.16;;;8.84;100.00
59787;BME280;45672;51.612;5.536;2023-02-18T07:55:27;101678.53;;;8.82;100.00
59787;BME280;45672;51.612;5.536;2023-02-18T07:58:13;101687.69;;;8.77;100.00
59787;BME280;45672;51.612;5.536;2023-02-18T08:00:38;101693.72;;;8.79;100.00
59787;BME280;45672;51.612;5.536;2023-02-18T08:03:03;101699.75;;;8.82;100.00
59787;BME280;45672;51.612;5.536;2023-02-18T08:05:29;101688.16;;;8.83;100.00
59787;BME280;45672;51.612;5.536;2023-02-18T08:07:55;101693.47;;;8.83;100.00
59787;BME280;45672;51.612;5.536;2023-02-18T08:10:20;101684.91;;;8.79;100.00
59787;BME280;45672;51.612;5.536;2023-02-18T08:12:45;101689.00;;;8.83;100.00
59787;BME280;45672;51.612;5.536;2023-02-18T08:15:12;101681.56;;;8.77;100.00
59787;BME280;45672;51.612;5.536;2023-02-18T08:17:37;101698.56;;;8.86;100.00
59787;BME280;45672;51.612;5.536;2023-02-18T08:20:03;101701.06;;;8.87;100.00
59787;BME280;45672;51.612;5.536;2023-02-18T08:22:29;101693.69;;;8.91;100.00
59787;BME280;45672;51.612;5.536;2023-02-18T08:24:54;101696.22;;;8.92;100.00
59787;BME280;45672;51.612;5.536;2023-02-18T08:27:20;101698.53;;;8.97;100.00
59787;BME280;45672;51.612;5.536;2023-02-18T08:29:45;101684.16;;;9.00;100.00
59787;BME280;45672;51.612;5.536;2023-02-18T08:32:12;101694.41;;;9.04;100.00
59787;BME280;45672;51.612;5.536;2023-02-18T08:34:37;101688.97;;;9.06;100.00
59787;BME280;45672;51.612;5.536;2023-02-18T08:37:03;101697.53;;;9.09;100.00
59787;BME280;45672;51.612;5.536;2023-02-18T08:39:33;101693.91;;;9.10;100.00
59787;BME280;45672;51.612;5.536;2023-02-18T08:41:58;101688.84;;;9.07;100.00
59787;BME280;45672;51.612;5.536;2023-02-18T08:44:24;101698.38;;;9.10;100.00
59787;BME280;45672;51.612;5.536;2023-02-18T08:46:49;101698.00;;;9.14;100.00
59787;BME280;45672;51.612;5.536;2023-02-18T08:49:15;101691.59;;;9.17;100.00
59787;BME280;45672;51.612;5.536;2023-02-18T08:51:41;101701.00;;;9.21;100.00
59787;BME280;45672;51.612;5.536;2023-02-18T08:54:06;101704.13;;;9.26;100.00
59787;BME280;45672;51.612;5.536;2023-02-18T08:56:31;101699.16;;;9.33;100.00
59787;BME280;45672;51.612;5.536;2023-02-18T08:58:57;101707.00;;;9.35;100.00
59787;BME280;45672;51.612;5.536;2023-02-18T09:01:23;101698.19;;;9.34;100.00
59787;BME280;45672;51.612;5.536;2023-02-18T09:03:48;101710.97;;;9.40;100.00
59787;BME280;45672;51.612;5.536;2023-02-18T09:06:13;101710.97;;;9.40;100.00
59787;BME280;45672;51.612;5.536;2023-02-18T09:08:39;101705.28;;;9.34;100.00
59787;BME280;45672;51.612;5.536;2023-02-18T09:11:04;101709.81;;;9.22;100.00
59787;BME280;45672;51.612;5.536;2023-02-18T09:13:31;101708.50;;;9.16;100.00
59787;BME280;45672;51.612;5.536;2023-02-18T09:16:10;101711.66;;;9.10;100.00
59787;BME280;45672;51.612;5.536;2023-02-18T09:18:35;101705.63;;;9.08;100.00
59787;BME280;45672;51.612;5.536;2023-02-18T09:21:04;101697.41;;;9.11;100.00
59787;BME280;45672;51.612;5.536;2023-02-18T09:23:31;101696.44;;;9.12;100.00
59787;BME280;45672;51.612;5.536;2023-02-18T09:25:58;101695.59;;;9.11;100.00
59787;BME280;45672;51.612;5.536;2023-02-18T09:28:24;101704.41;;;9.12;100.00
59787;BME280;45672;51.612;5.536;2023-02-18T09:30:50;101701.88;;;9.10;100.00
59787;BME280;45672;51.612;5.536;2023-02-18T09:33:17;101703.09;;;9.06;100.00
59787;BME280;45672;51.612;5.536;2023-02-18T09:35:44;101693.56;;;9.04;100.00
59787;BME280;45672;51.612;5.536;2023-02-18T09:38:11;101702.38;;;9.04;100.00
59787;BME280;45672;51.612;5.536;2023-02-18T09:40:41;101704.53;;;9.10;100.00
59787;BME280;45672;51.612;5.536;2023-02-18T09:43:17;101708.50;;;9.16;100.00
59787;BME280;45672;51.612;5.536;2023-02-18T09:45:43;101707.16;;;9.22;100.00
59787;BME280;45672;51.612;5.536;2023-02-18T09:48:08;101710.16;;;9.28;100.00
59787;BME280;45672;51.612;5.536;2023-02-18T09:50:35;101707.25;;;9.31;100.00
59787;BME280;45672;51.612;5.536;2023-02-18T09:53:02;101716.53;;;9.37;100.00
59787;BME280;45672;51.612;5.536;2023-02-18T09:55:34;101718.22;;;9.38;100.00
59787;BME280;45672;51.612;5.536;2023-02-18T09:58:26;101715.31;;;9.41;100.00
59787;BME280;45672;51.612;5.536;2023-02-18T10:01:16;101715.19;;;9.43;100.00
59787;BME280;45672;51.612;5.536;2023-02-18T10:03:44;101711.19;;;9.48;100.00
59787;BME280;45672;51.612;5.536;2023-02-18T10:06:22;101710.91;;;9.52;100.00
59787;BME280;45672;51.612;5.536;2023-02-18T10:08:51;101711.63;;;9.54;100.00
59787;BME280;45672;51.612;5.536;2023-02-18T10:11:39;101713.06;;;9.58;100.00
59787;BME280;45672;51.612;5.536;2023-02-18T10:14:10;101718.16;;;9.61;100.00
59787;BME280;45672;51.612;5.536;2023-02-18T10:16:36;101714.22;;;9.65;100.00
59787;BME280;45672;51.612;5.536;2023-02-18T10:19:12;101719.88;;;9.72;100.00
59787;BME280;45672;51.612;5.536;2023-02-18T10:21:40;101733.78;;;9.75;100.00
59787;BME280;45672;51.612;5.536;2023-02-18T10:24:20;101730.13;;;9.76;100.00
59787;BME280;45672;51.612;5.536;2023-02-18T10:26:49;101753.81;;;9.79;100.00
59787;BME280;45672;51.612;5.536;2023-02-18T10:29:17;101761.66;;;9.81;100.00
59787;BME280;45672;51.612;5.536;2023-02-18T10:31:51;101742.19;;;9.80;100.00
59787;BME280;45672;51.612;5.536;2023-02-18T10:36:57;101751.88;;;9.81;100.00
59787;BME280;45672;51.612;5.536;2023-02-18T10:39:45;101746.56;;;9.81;100.00
59787;BME280;45672;51.612;5.536;2023-02-18T10:45:35;101752.00;;;9.80;100.00
59787;BME280;45672;51.612;5.536;2023-02-18T10:49:03;101757.31;;;9.80;100.00
59787;BME280;45672;51.612;5.536;2023-02-18T10:51:20;101761.53;;;9.82;100.00
59787;BME280;45672;51.612;5.536;2023-02-18T10:53:48;101758.63;;;9.86;100.00
59787;BME280;45672;51.612;5.536;2023-02-18T11:01:36;101775.22;;;9.78;100.00
59787;BME280;45672;51.612;5.536;2023-02-18T11:04:15;101773.69;;;9.64;100.00
59787;BME280;45672;51.612;5.536;2023-02-18T11:06:46;101772.94;;;9.62;100.00
59787;BME280;45672;51.612;5.536;2023-02-18T11:09:32;101759.41;;;9.32;100.00
59787;BME280;45672;51.612;5.536;2023-02-18T11:12:04;101768.47;;;9.30;100.00
59787;BME280;45672;51.612;5.536;2023-02-18T11:14:45;101762.19;;;9.31;100.00
59787;BME280;45672;51.612;5.536;2023-02-18T11:17:18;101756.13;;;9.40;100.00
59787;BME280;45672;51.612;5.536;2023-02-18T11:19:58;101773.63;;;9.43;100.00
59787;BME280;45672;51.612;5.536;2023-02-18T11:22:29;101765.00;;;9.51;100.00
59787;BME280;45672;51.612;5.536;2023-02-18T11:24:59;101767.81;;;9.49;100.00
59787;BME280;45672;51.612;5.536;2023-02-18T11:27:42;101774.31;;;9.45;100.00
59787;BME280;45672;51.612;5.536;2023-02-18T11:32:42;101769.78;;;9.36;100.00
59787;BME280;45672;51.612;5.536;2023-02-18T11:35:16;101763.59;;;9.35;100.00
59787;BME280;45672;51.612;5.536;2023-02-18T11:37:42;101764.34;;;9.37;100.00
59787;BME280;45672;51.612;5.536;2023-02-18T11:40:20;101767.69;;;9.39;100.00
59787;BME280;45672;51.612;5.536;2023-02-18T11:42:46;101768.44;;;9.41;100.00
59787;BME280;45672;51.612;5.536;2023-02-18T11:45:27;101773.63;;;9.43;100.00
59787;BME280;45672;51.612;5.536;2023-02-18T11:48:01;101766.13;;;9.48;100.00
59787;BME280;45672;51.612;5.536;2023-02-18T11:50:32;101759.97;;;9.47;100.00
59787;BME280;45672;51.612;5.536;2023-02-18T11:52:57;101754.78;;;9.46;100.00
59787;BME280;45672;51.612;5.536;2023-02-18T11:55:25;101760.56;;;9.51;100.00
59787;BME280;45672;51.612;5.536;2023-02-18T11:57:58;101757.53;;;9.56;100.00
59787;BME280;45672;51.612;5.536;2023-02-18T12:00:37;101751.81;;;9.60;100.00
59787;BME280;45672;51.612;5.536;2023-02-18T12:03:21;101755.78;;;9.66;100.00
59787;BME280;45672;51.612;5.536;2023-02-18T12:05:51;101753.88;;;9.68;100.00
59787;BME280;45672;51.612;5.536;2023-02-18T12:08:21;101751.53;;;9.75;100.00
59787;BME280;45672;51.612;5.536;2023-02-18T12:10:53;101748.56;;;9.89;100.00
59787;BME280;45672;51.612;5.536;2023-02-18T12:13:41;101740.22;;;10.15;100.00
59787;BME280;45672;51.612;5.536;2023-02-18T12:24:44;101741.47;;;10.94;100.00
59787;BME280;45672;51.612;5.536;2023-02-18T12:27:40;101732.91;;;11.00;100.00
59787;BME280;45672;51.612;5.536;2023-02-18T12:30:37;101733.91;;;10.99;100.00
59787;BME280;45672;51.612;5.536;2023-02-18T12:38:48;101724.13;;;11.09;100.00
59787;BME280;45672;51.612;5.536;2023-02-18T12:52:41;101736.50;;;11.30;100.00
59787;BME280;45672;51.612;5.536;2023-02-18T12:55:27;101746.34;;;11.39;100.00
59787;BME280;45672;51.612;5.536;2023-02-18T13:06:32;101737.22;;;11.42;100.00
59787;BME280;45672;51.612;5.536;2023-02-18T13:14:30;101742.41;;;11.43;100.00
59787;BME280;45672;51.612;5.536;2023-02-18T13:16:59;101743.69;;;11.49;100.00
59787;BME280;45672;51.612;5.536;2023-02-18T13:19:51;101747.03;;;11.61;100.00
59787;BME280;45672;51.612;5.536;2023-02-18T13:22:21;101748.75;;;11.62;100.00
59787;BME280;45672;51.612;5.536;2023-02-18T13:24:49;101745.34;;;11.60;100.00
59787;BME280;45672;51.612;5.536;2023-02-18T13:27:20;101753.78;;;11.55;100.00
59787;BME280;45672;51.612;5.536;2023-02-18T13:30:18;101740.59;;;11.53;100.00
59787;BME280;45672;51.612;5.536;2023-02-18T13:35:26;101746.63;;;11.75;100.00
59787;BME280;45672;51.612;5.536;2023-02-18T13:38:19;101740.47;;;11.84;100.00
59787;BME280;45672;51.612;5.536;2023-02-18T13:40:50;101740.75;;;11.91;100.00
59787;BME280;45672;51.612;5.536;2023-02-18T13:46:09;101744.38;;;11.90;100.00
59787;BME280;45672;51.612;5.536;2023-02-18T13:48:51;101741.59;;;11.82;100.00
59787;BME280;45672;51.612;5.536;2023-02-18T13:53:59;101736.09;;;11.83;100.00
59787;BME280;45672;51.612;5.536;2023-02-18T13:56:30;101740.91;;;11.80;100.00
59787;BME280;45672;51.612;5.536;2023-02-18T13:59:17;101753.66;;;11.76;100.00
59787;BME280;45672;51.612;5.536;2023-02-18T14:01:46;101751.28;;;11.73;100.00
59787;BME280;45672;51.612;5.536;2023-02-18T14:07:26;101746.22;;;11.80;100.00
59787;BME280;45672;51.612;5.536;2023-02-18T14:09:55;101737.66;;;11.86;100.00
59787;BME280;45672;51.612;5.536;2023-02-18T14:12:40;101751.00;;;11.96;100.00
59787;BME280;45672;51.612;5.536;2023-02-18T14:22:51;101752.25;;;11.82;100.00
59787;BME280;45672;51.612;5.536;2023-02-18T14:27:46;101746.47;;;11.77;100.00
59787;BME280;45672;51.612;5.536;2023-02-18T14:30:23;101753.22;;;11.81;100.00
59787;BME280;45672;51.612;5.536;2023-02-18T14:32:51;101746.47;;;11.86;100.00
59787;BME280;45672;51.612;5.536;2023-02-18T14:35:34;101747.63;;;11.94;100.00
59787;BME280;45672;51.612;5.536;2023-02-18T14:38:14;101756.34;;;11.96;100.00
59787;BME280;45672;51.612;5.536;2023-02-18T14:40:57;101757.19;;;11.96;100.00
59787;BME280;45672;51.612;5.536;2023-02-18T14:49:43;101754.66;;;11.95;100.00
59787;BME280;45672;51.612;5.536;2023-02-18T14:52:21;101760.56;;;11.98;100.00
59787;BME280;45672;51.612;5.536;2023-02-18T14:54:48;101743.56;;;11.99;100.00
59787;BME280;45672;51.612;5.536;2023-02-18T14:57:16;101748.88;;;11.99;100.00
59787;BME280;45672;51.612;5.536;2023-02-18T14:59:44;101752.28;;;12.01;99.91
59787;BME280;45672;51.612;5.536;2023-02-18T15:02:22;101748.75;;;12.01;100.00
59787;BME280;45672;51.612;5.536;2023-02-18T15:04:48;101756.19;;;11.97;100.00
59787;BME280;45672;51.612;5.536;2023-02-18T15:07:21;101752.09;;;11.93;100.00
59787;BME280;45672;51.612;5.536;2023-02-18T15:09:52;101753.94;;;11.93;100.00
59787;BME280;45672;51.612;5.536;2023-02-18T15:12:20;101736.69;;;11.87;100.00